createdAt,value
2016-10-12T00:00:17.644Z,9.8
2016-10-12T00:01:17.287Z,9.81
2016-10-12T00:02:17.603Z,9.82
2016-10-12T00:03:17.617Z,9.77
2016-10-12T00:04:17.324Z,9.8
2016-10-12T00:05:17.660Z,9.74
2016-10-12T00:06:17.684Z,9.74
2016-10-12T00:07:17.681Z,9.74
2016-10-12T00:08:17.715Z,9.82
2016-10-12T00:09:17.731Z,9.77
2016-10-12T00:10:17.438Z,9.85
2016-10-12T00:11:17.781Z,9.8
2016-10-12T00:12:17.574Z,9.74
2016-10-12T00:13:17.547Z,9.69
2016-10-12T00:14:17.837Z,9.72
2016-10-12T00:15:17.844Z,9.74
2016-10-12T00:16:17.540Z,9.74
2016-10-12T00:17:17.882Z,9.69
2016-10-12T00:18:17.902Z,9.76
2016-10-12T00:19:17.932Z,9.76
2016-10-12T00:20:17.940Z,9.73
2016-10-12T00:21:17.943Z,9.76
2016-10-12T00:22:17.962Z,9.74
2016-10-12T00:23:17.972Z,9.73
2016-10-12T00:24:18.081Z,9.69
2016-10-12T00:25:18.024Z,9.77
2016-10-12T00:26:18.034Z,9.66
2016-10-12T00:27:18.058Z,9.74
2016-10-12T00:28:18.122Z,9.76
2016-10-12T00:29:18.089Z,9.74
2016-10-12T00:30:18.104Z,9.8
2016-10-12T00:31:18.132Z,9.72
2016-10-12T00:32:18.154Z,9.76
2016-10-12T00:33:18.162Z,9.74
2016-10-12T00:34:17.867Z,9.69
2016-10-12T00:35:18.194Z,9.63
2016-10-12T00:36:18.233Z,9.72
2016-10-12T00:37:18.244Z,9.72
2016-10-12T00:38:18.244Z,9.69
2016-10-12T00:39:18.030Z,9.66
2016-10-12T00:40:18.291Z,9.66
2016-10-12T00:41:18.315Z,9.72
2016-10-12T00:42:18.333Z,9.64
2016-10-12T00:43:18.347Z,9.66
2016-10-12T00:44:18.050Z,9.72
2016-10-12T00:45:18.383Z,9.64
2016-10-12T00:46:18.403Z,9.64
2016-10-12T00:47:18.434Z,9.67
2016-10-12T00:48:18.242Z,9.59
2016-10-12T00:49:18.445Z,9.7
2016-10-12T00:50:18.465Z,9.66
2016-10-12T00:51:18.480Z,9.67
2016-10-12T00:52:18.505Z,9.74
2016-10-12T00:53:18.568Z,9.73
2016-10-12T00:54:18.540Z,9.73
2016-10-12T00:55:18.553Z,9.76
2016-10-12T00:56:18.275Z,9.69
2016-10-12T00:57:18.598Z,9.76
2016-10-12T00:58:18.627Z,9.69
2016-10-12T00:59:18.625Z,9.74
2016-10-12T01:00:18.654Z,9.69
2016-10-12T01:01:18.670Z,9.72
2016-10-12T01:02:18.678Z,9.69
2016-10-12T01:03:18.400Z,9.69
2016-10-12T01:04:18.726Z,9.69
2016-10-12T01:05:18.435Z,9.76
2016-10-12T01:06:18.786Z,9.66
2016-10-12T01:07:18.825Z,9.63
2016-10-12T01:08:18.493Z,9.64
2016-10-12T01:09:18.816Z,9.56
2016-10-12T01:10:18.835Z,9.63
2016-10-12T01:11:18.541Z,9.64
2016-10-12T01:12:18.870Z,9.66
2016-10-12T01:13:18.887Z,9.67
2016-10-12T01:14:18.596Z,9.73
2016-10-12T01:15:18.926Z,9.67
2016-10-12T01:16:18.624Z,9.72
2016-10-12T01:17:18.975Z,9.7
2016-10-12T01:18:19.026Z,9.74
2016-10-12T01:19:18.705Z,9.73
2016-10-12T01:20:19.108Z,9.66
2016-10-12T01:21:19.047Z,9.77
2016-10-12T01:22:19.047Z,9.73
2016-10-12T01:23:19.092Z,9.7
2016-10-12T01:24:18.849Z,9.76
2016-10-12T01:25:19.102Z,9.67
2016-10-12T01:26:18.806Z,9.76
2016-10-12T01:27:18.513Z,9.76
2016-10-12T01:28:19.156Z,9.69
2016-10-12T01:29:19.163Z,9.74
2016-10-12T01:30:19.313Z,9.7
2016-10-12T01:31:18.913Z,9.73
2016-10-12T01:32:19.281Z,9.69
2016-10-12T01:33:18.937Z,9.59
2016-10-12T01:34:19.264Z,9.66
2016-10-12T01:35:19.371Z,9.69
2016-10-12T01:36:19.288Z,9.76
2016-10-12T01:37:19.007Z,9.74
2016-10-12T01:38:19.336Z,9.72
2016-10-12T01:39:19.342Z,9.72
2016-10-12T01:40:19.379Z,9.63
2016-10-12T01:41:19.374Z,9.66
2016-10-12T01:42:19.392Z,9.63
2016-10-12T01:43:19.128Z,9.67
2016-10-12T01:44:19.502Z,9.62
2016-10-12T01:45:19.234Z,9.56
2016-10-12T01:46:19.548Z,9.55
2016-10-12T01:47:18.885Z,9.58
2016-10-12T01:48:19.205Z,9.58
2016-10-12T01:49:19.536Z,9.62
2016-10-12T01:50:19.552Z,9.59
2016-10-12T01:51:19.597Z,9.58
2016-10-12T01:52:19.586Z,9.66
2016-10-12T01:53:19.618Z,9.56
2016-10-12T01:54:19.363Z,9.55
2016-10-12T01:55:19.640Z,9.59
2016-10-12T01:56:19.365Z,9.59
2016-10-12T01:57:19.676Z,9.58
2016-10-12T01:58:19.474Z,9.56
2016-10-12T01:59:19.801Z,9.56
2016-10-12T02:00:19.426Z,9.62
2016-10-12T02:01:19.764Z,9.58
2016-10-12T02:02:19.473Z,9.59
2016-10-12T02:03:19.777Z,9.56
2016-10-12T02:04:19.797Z,9.69
2016-10-12T02:05:19.517Z,9.58
2016-10-12T02:06:19.840Z,9.55
2016-10-12T02:07:19.866Z,9.58
2016-10-12T02:08:19.573Z,9.52
2016-10-12T02:09:19.906Z,9.47
2016-10-12T02:10:19.913Z,9.54
2016-10-12T02:11:19.701Z,9.47
2016-10-12T02:12:19.948Z,9.48
2016-10-12T02:13:19.981Z,9.52
2016-10-12T02:14:19.986Z,9.48
2016-10-12T02:15:20.012Z,9.45
2016-10-12T02:16:19.714Z,9.48
2016-10-12T02:17:20.037Z,9.45
2016-10-12T02:18:20.110Z,9.44
2016-10-12T02:19:19.776Z,9.34
2016-10-12T02:20:20.094Z,9.47
2016-10-12T02:21:20.114Z,9.49
2016-10-12T02:22:20.146Z,9.44
2016-10-12T02:23:19.837Z,9.42
2016-10-12T02:24:20.169Z,9.47
2016-10-12T02:25:20.271Z,9.51
2016-10-12T02:26:19.887Z,9.42
2016-10-12T02:27:20.268Z,9.44
2016-10-12T02:28:19.927Z,9.34
2016-10-12T02:29:20.242Z,9.45
2016-10-12T02:30:20.274Z,9.45
2016-10-12T02:31:20.287Z,9.36
2016-10-12T02:32:20.319Z,9.42
2016-10-12T02:33:19.718Z,9.48
2016-10-12T02:34:19.730Z,9.47
2016-10-12T02:35:20.379Z,9.44
2016-10-12T02:36:20.146Z,9.49
2016-10-12T02:37:20.393Z,9.47
2016-10-12T02:38:20.467Z,9.44
2016-10-12T02:39:20.108Z,9.42
2016-10-12T02:40:20.146Z,9.45
2016-10-12T02:41:20.168Z,9.39
2016-10-12T02:42:20.178Z,9.4
2016-10-12T02:43:20.508Z,9.47
2016-10-12T02:44:20.539Z,9.36
2016-10-12T02:45:20.227Z,9.37
2016-10-12T02:46:20.556Z,9.49
2016-10-12T02:47:20.572Z,9.47
2016-10-12T02:48:20.278Z,9.39
2016-10-12T02:49:20.608Z,9.48
2016-10-12T02:50:20.321Z,9.4
2016-10-12T02:51:20.348Z,9.29
2016-10-12T02:52:20.661Z,9.4
2016-10-12T02:53:20.687Z,9.37
2016-10-12T02:54:20.390Z,9.34
2016-10-12T02:55:20.717Z,9.37
2016-10-12T02:56:20.739Z,9.37
2016-10-12T02:57:20.777Z,9.3
2016-10-12T02:58:21.127Z,9.26
2016-10-12T02:59:20.797Z,9.27
2016-10-12T03:00:20.805Z,9.36
2016-10-12T03:01:20.826Z,9.37
2016-10-12T03:02:20.887Z,9.31
2016-10-12T03:03:20.864Z,9.31
2016-10-12T03:04:20.573Z,9.33
2016-10-12T03:05:20.910Z,9.34
2016-10-12T03:06:20.927Z,9.36
2016-10-12T03:07:20.930Z,9.36
2016-10-12T03:08:20.960Z,9.4
2016-10-12T03:09:20.969Z,9.37
2016-10-12T03:10:21.001Z,9.24
2016-10-12T03:11:21.018Z,9.33
2016-10-12T03:12:21.015Z,9.29
2016-10-12T03:13:20.740Z,9.21
2016-10-12T03:14:21.057Z,9.21
2016-10-12T03:15:20.780Z,9.16
2016-10-12T03:16:21.098Z,9.15
2016-10-12T03:17:21.117Z,9.24
2016-10-12T03:18:21.138Z,9.19
2016-10-12T03:19:20.849Z,9.19
2016-10-12T03:20:21.172Z,9.22
2016-10-12T03:21:21.223Z,9.13
2016-10-12T03:22:20.910Z,9.12
2016-10-12T03:23:21.004Z,9.12
2016-10-12T03:24:21.236Z,9.13
2016-10-12T03:25:21.245Z,9.11
2016-10-12T03:26:21.280Z,9.16
2016-10-12T03:27:21.389Z,9.22
2016-10-12T03:28:21.345Z,9.19
2016-10-12T03:29:21.462Z,9.09
2016-10-12T03:30:21.345Z,9.16
2016-10-12T03:31:21.069Z,9.13
2016-10-12T03:32:21.488Z,9.15
2016-10-12T03:33:21.418Z,9.12
2016-10-12T03:34:21.488Z,9.12
2016-10-12T03:35:21.491Z,9.12
2016-10-12T03:36:21.457Z,9.15
2016-10-12T03:37:21.475Z,9.16
2016-10-12T03:38:21.489Z,9.11
2016-10-12T03:39:21.517Z,9.15
2016-10-12T03:40:21.330Z,9.12
2016-10-12T03:41:21.359Z,9.12
2016-10-12T03:42:21.669Z,9.08
2016-10-12T03:43:21.579Z,9.05
2016-10-12T03:44:21.618Z,9.09
2016-10-12T03:45:21.674Z,9
2016-10-12T03:46:21.332Z,8.97
2016-10-12T03:47:21.650Z,9
2016-10-12T03:48:21.669Z,8.97
2016-10-12T03:49:21.678Z,9
2016-10-12T03:50:21.397Z,9.05
2016-10-12T03:51:21.734Z,9.02
2016-10-12T03:52:21.739Z,9.13
2016-10-12T03:53:21.907Z,9.11
2016-10-12T03:54:21.777Z,9.02
2016-10-12T03:55:21.898Z,8.92
2016-10-12T03:56:21.635Z,8.95
2016-10-12T03:57:21.935Z,8.97
2016-10-12T03:58:21.630Z,8.97
2016-10-12T03:59:22.155Z,9
2016-10-12T04:00:21.877Z,8.87
2016-10-12T04:01:21.950Z,9
2016-10-12T04:02:21.910Z,8.92
2016-10-12T04:03:21.936Z,8.95
2016-10-12T04:04:21.950Z,8.97
2016-10-12T04:05:21.979Z,8.96
2016-10-12T04:06:21.987Z,8.87
2016-10-12T04:07:22.011Z,8.9
2016-10-12T04:08:21.721Z,8.89
2016-10-12T04:09:21.819Z,8.89
2016-10-12T04:10:21.769Z,8.89
2016-10-12T04:11:22.128Z,8.89
2016-10-12T04:12:22.086Z,8.92
2016-10-12T04:13:21.797Z,8.87
2016-10-12T04:14:22.179Z,8.93
2016-10-12T04:15:22.151Z,8.92
2016-10-12T04:16:22.158Z,8.96
2016-10-12T04:17:22.178Z,8.95
2016-10-12T04:18:22.398Z,8.86
2016-10-12T04:19:22.204Z,8.89
2016-10-12T04:20:22.220Z,8.9
2016-10-12T04:21:21.929Z,8.96
2016-10-12T04:22:22.259Z,8.92
2016-10-12T04:23:22.294Z,8.95
2016-10-12T04:24:22.094Z,8.89
2016-10-12T04:25:22.008Z,8.86
2016-10-12T04:26:22.336Z,8.92
2016-10-12T04:27:22.358Z,8.86
2016-10-12T04:28:22.373Z,8.86
2016-10-12T04:29:22.387Z,8.93
2016-10-12T04:30:22.511Z,8.92
2016-10-12T04:31:22.424Z,8.99
2016-10-12T04:32:22.120Z,8.96
2016-10-12T04:33:22.459Z,8.87
2016-10-12T04:34:22.460Z,9.03
2016-10-12T04:35:22.492Z,8.93
2016-10-12T04:36:22.506Z,8.95
2016-10-12T04:37:22.529Z,8.92
2016-10-12T04:38:22.237Z,8.87
2016-10-12T04:39:22.572Z,8.87
2016-10-12T04:40:22.570Z,8.92
2016-10-12T04:41:22.638Z,8.78
2016-10-12T04:42:22.612Z,8.87
2016-10-12T04:43:22.658Z,8.79
2016-10-12T04:44:22.341Z,8.84
2016-10-12T04:45:22.670Z,8.82
2016-10-12T04:46:22.685Z,8.82
2016-10-12T04:47:22.699Z,8.81
2016-10-12T04:48:22.727Z,8.75
2016-10-12T04:49:22.420Z,8.77
2016-10-12T04:50:22.767Z,8.81
2016-10-12T04:51:22.775Z,8.75
2016-10-12T04:52:22.495Z,8.77
2016-10-12T04:53:22.809Z,8.79
2016-10-12T04:54:22.512Z,8.77
2016-10-12T04:55:22.541Z,8.72
2016-10-12T04:56:22.848Z,8.71
2016-10-12T04:57:22.871Z,8.74
2016-10-12T04:58:22.585Z,8.75
2016-10-12T04:59:22.618Z,8.72
2016-10-12T05:00:22.938Z,8.78
2016-10-12T05:01:22.631Z,8.72
2016-10-12T05:02:22.973Z,8.68
2016-10-12T05:03:22.998Z,8.72
2016-10-12T05:04:23.002Z,8.72
2016-10-12T05:05:23.064Z,8.74
2016-10-12T05:06:23.235Z,8.74
2016-10-12T05:07:23.058Z,8.75
2016-10-12T05:08:23.280Z,8.63
2016-10-12T05:09:23.091Z,8.68
2016-10-12T05:10:23.107Z,8.66
2016-10-12T05:11:22.815Z,8.66
2016-10-12T05:12:22.829Z,8.6
2016-10-12T05:13:23.293Z,8.68
2016-10-12T05:14:22.861Z,8.68
2016-10-12T05:15:23.293Z,8.63
2016-10-12T05:16:23.276Z,8.66
2016-10-12T05:17:23.248Z,8.64
2016-10-12T05:18:23.242Z,8.56
2016-10-12T05:19:23.288Z,8.57
2016-10-12T05:20:23.333Z,8.56
2016-10-12T05:21:23.283Z,8.6
2016-10-12T05:22:23.315Z,8.57
2016-10-12T05:23:23.335Z,8.52
2016-10-12T05:24:23.496Z,8.46
2016-10-12T05:25:23.376Z,8.59
2016-10-12T05:26:23.073Z,8.46
2016-10-12T05:27:23.390Z,8.5
2016-10-12T05:28:23.446Z,8.5
2016-10-12T05:29:23.452Z,8.49
2016-10-12T05:30:23.554Z,8.52
2016-10-12T05:31:23.488Z,8.49
2016-10-12T05:32:23.285Z,8.45
2016-10-12T05:33:23.499Z,8.44
2016-10-12T05:34:23.536Z,8.53
2016-10-12T05:35:23.232Z,8.54
2016-10-12T05:36:23.557Z,8.42
2016-10-12T05:37:23.569Z,8.52
2016-10-12T05:38:23.590Z,8.5
2016-10-12T05:39:23.598Z,8.49
2016-10-12T05:40:23.616Z,8.46
2016-10-12T05:41:23.734Z,8.45
2016-10-12T05:42:23.676Z,8.46
2016-10-12T05:43:23.768Z,8.5
2016-10-12T05:44:23.414Z,8.45
2016-10-12T05:45:23.724Z,8.46
2016-10-12T05:46:23.414Z,8.52
2016-10-12T05:47:23.517Z,8.45
2016-10-12T05:48:23.769Z,8.44
2016-10-12T05:49:23.496Z,8.46
2016-10-12T05:50:23.810Z,8.45
2016-10-12T05:51:23.799Z,8.42
2016-10-12T05:52:23.837Z,8.46
2016-10-12T05:53:23.856Z,8.45
2016-10-12T05:54:23.997Z,8.39
2016-10-12T05:55:23.997Z,8.41
2016-10-12T05:56:23.935Z,8.45
2016-10-12T05:57:24.005Z,8.42
2016-10-12T05:58:23.948Z,8.46
2016-10-12T05:59:23.970Z,8.46
2016-10-12T06:00:23.974Z,8.53
2016-10-12T06:01:23.670Z,8.46
2016-10-12T06:02:24.008Z,8.49
2016-10-12T06:03:23.715Z,8.53
2016-10-12T06:04:23.739Z,8.57
2016-10-12T06:05:24.064Z,8.56
2016-10-12T06:06:24.068Z,8.54
2016-10-12T06:07:24.082Z,8.54
2016-10-12T06:08:23.904Z,8.56
2016-10-12T06:09:24.137Z,8.57
2016-10-12T06:10:24.226Z,8.54
2016-10-12T06:11:24.167Z,8.53
2016-10-12T06:12:24.208Z,8.57
2016-10-12T06:13:24.197Z,8.54
2016-10-12T06:14:23.895Z,8.64
2016-10-12T06:15:24.233Z,8.56
2016-10-12T06:16:24.259Z,8.64
2016-10-12T06:17:24.267Z,8.72
2016-10-12T06:18:24.481Z,8.74
2016-10-12T06:19:23.974Z,8.74
2016-10-12T06:20:24.007Z,8.81
2016-10-12T06:21:24.346Z,8.77
2016-10-12T06:22:24.365Z,8.77
2016-10-12T06:23:24.465Z,8.74
2016-10-12T06:24:24.408Z,8.82
2016-10-12T06:25:24.425Z,8.82
2016-10-12T06:26:24.502Z,8.78
2016-10-12T06:27:24.441Z,8.79
2016-10-12T06:28:24.151Z,8.81
2016-10-12T06:29:23.860Z,8.82
2016-10-12T06:30:24.494Z,8.89
2016-10-12T06:31:24.505Z,8.93
2016-10-12T06:32:24.541Z,8.89
2016-10-12T06:33:24.235Z,8.97
2016-10-12T06:34:24.568Z,8.84
2016-10-12T06:35:24.575Z,8.89
2016-10-12T06:36:24.347Z,8.89
2016-10-12T06:37:24.626Z,8.93
2016-10-12T06:38:24.635Z,8.89
2016-10-12T06:39:24.028Z,8.78
2016-10-12T06:40:24.350Z,8.89
2016-10-12T06:41:24.677Z,8.9
2016-10-12T06:42:24.382Z,8.84
2016-10-12T06:43:24.720Z,8.87
2016-10-12T06:44:24.730Z,8.95
2016-10-12T06:45:24.770Z,8.86
2016-10-12T06:46:24.767Z,8.75
2016-10-12T06:47:24.804Z,8.77
2016-10-12T06:48:24.806Z,8.84
2016-10-12T06:49:24.828Z,8.81
2016-10-12T06:50:24.859Z,8.84
2016-10-12T06:51:24.901Z,8.81
2016-10-12T06:52:24.887Z,8.92
2016-10-12T06:53:24.570Z,8.89
2016-10-12T06:54:24.915Z,8.86
2016-10-12T06:55:24.942Z,9
2016-10-12T06:56:24.644Z,8.99
2016-10-12T06:57:24.670Z,8.9
2016-10-12T06:58:24.676Z,8.9
2016-10-12T06:59:24.706Z,8.89
2016-10-12T07:00:25.022Z,8.86
2016-10-12T07:01:25.039Z,8.97
2016-10-12T07:02:25.061Z,8.96
2016-10-12T07:03:25.065Z,9
2016-10-12T07:04:24.785Z,8.97
2016-10-12T07:05:25.119Z,9
2016-10-12T07:06:25.128Z,8.97
2016-10-12T07:07:25.140Z,8.89
2016-10-12T07:08:25.180Z,8.92
2016-10-12T07:09:24.877Z,8.87
2016-10-12T07:10:25.193Z,8.87
2016-10-12T07:11:24.911Z,8.9
2016-10-12T07:12:25.228Z,8.86
2016-10-12T07:13:25.256Z,8.93
2016-10-12T07:14:25.312Z,8.9
2016-10-12T07:15:24.969Z,9.02
2016-10-12T07:16:25.000Z,8.99
2016-10-12T07:17:25.006Z,8.97
2016-10-12T07:18:25.534Z,8.97
2016-10-12T07:19:25.043Z,8.97
2016-10-12T07:20:25.375Z,8.96
2016-10-12T07:21:25.165Z,9.02
2016-10-12T07:22:25.429Z,8.97
2016-10-12T07:23:25.117Z,8.97
2016-10-12T07:24:25.141Z,8.95
2016-10-12T07:25:25.472Z,9.03
2016-10-12T07:26:25.379Z,9.09
2016-10-12T07:27:25.496Z,9.02
2016-10-12T07:28:25.530Z,8.99
2016-10-12T07:29:25.661Z,9.05
2016-10-12T07:30:25.551Z,9.03
2016-10-12T07:31:25.571Z,9.08
2016-10-12T07:32:25.631Z,9.18
2016-10-12T07:33:25.283Z,9.26
2016-10-12T07:34:25.638Z,9.27
2016-10-12T07:35:25.325Z,9.16
2016-10-12T07:36:25.353Z,9.19
2016-10-12T07:37:25.678Z,9.12
2016-10-12T07:38:25.690Z,9.15
2016-10-12T07:39:25.416Z,9.13
2016-10-12T07:40:25.473Z,9.3
2016-10-12T07:41:25.450Z,9.3
2016-10-12T07:42:25.829Z,9.27
2016-10-12T07:43:26.029Z,9.34
2016-10-12T07:44:25.906Z,9.36
2016-10-12T07:45:25.207Z,9.47
2016-10-12T07:46:25.895Z,9.54
2016-10-12T07:47:25.859Z,9.77
2016-10-12T07:48:25.870Z,9.9
2016-10-12T07:49:25.899Z,10.1
2016-10-12T07:50:25.919Z,10.03
2016-10-12T07:51:25.679Z,10.07
2016-10-12T07:52:25.949Z,10.24
2016-10-12T07:53:26.014Z,10.24
2016-10-12T07:54:25.986Z,10.41
2016-10-12T07:55:25.998Z,10.43
2016-10-12T07:56:26.100Z,10.58
2016-10-12T07:57:25.788Z,10.38
2016-10-12T07:58:26.061Z,10.59
2016-10-12T07:59:25.768Z,10.67
2016-10-12T08:00:26.087Z,10.79
2016-10-12T08:01:25.916Z,10.86
2016-10-12T08:02:25.516Z,11.08
2016-10-12T08:03:26.152Z,11.15
2016-10-12T08:04:25.841Z,11.2
2016-10-12T08:05:26.168Z,11.02
2016-10-12T08:06:26.231Z,11
2016-10-12T08:07:26.295Z,11.26
2016-10-12T08:08:26.235Z,11.33
2016-10-12T08:09:26.254Z,11.16
2016-10-12T08:10:25.977Z,10.83
2016-10-12T08:11:26.084Z,10.77
2016-10-12T08:12:26.321Z,10.68
2016-10-12T08:13:26.337Z,10.39
2016-10-12T08:14:26.351Z,10.42
2016-10-12T08:15:26.367Z,10.43
2016-10-12T08:16:26.077Z,10.59
2016-10-12T08:17:26.396Z,10.9
2016-10-12T08:18:26.106Z,10.98
2016-10-12T08:19:26.139Z,11.02
2016-10-12T08:20:26.205Z,11.19
2016-10-12T08:21:26.377Z,11.35
2016-10-12T08:22:26.207Z,11.2
2016-10-12T08:23:26.517Z,11.19
2016-10-12T08:24:26.548Z,11.33
2016-10-12T08:25:26.567Z,11.49
2016-10-12T08:26:26.267Z,11.62
2016-10-12T08:27:26.596Z,11.74
2016-10-12T08:28:26.618Z,11.68
2016-10-12T08:29:26.641Z,11.77
2016-10-12T08:30:26.663Z,11.74
2016-10-12T08:31:26.683Z,11.8
2016-10-12T08:32:26.377Z,11.88
2016-10-12T08:33:26.401Z,11.77
2016-10-12T08:34:26.750Z,11.59
2016-10-12T08:35:26.748Z,11.41
2016-10-12T08:36:26.468Z,11.49
2016-10-12T08:37:26.789Z,11.43
2016-10-12T08:38:26.488Z,11.35
2016-10-12T08:39:26.825Z,11.27
2016-10-12T08:40:26.853Z,11.56
2016-10-12T08:41:26.555Z,11.35
2016-10-12T08:42:26.577Z,11.41
2016-10-12T08:43:26.910Z,11.25
2016-10-12T08:44:26.923Z,11.34
2016-10-12T08:45:26.639Z,11.3
2016-10-12T08:46:26.660Z,11.26
2016-10-12T08:47:26.981Z,11.12
2016-10-12T08:48:26.693Z,11.18
2016-10-12T08:49:26.721Z,11.13
2016-10-12T08:50:26.725Z,11.27
2016-10-12T08:51:26.759Z,11.34
2016-10-12T08:52:27.087Z,11.48
2016-10-12T08:53:27.096Z,11.4
2016-10-12T08:54:27.131Z,11.43
2016-10-12T08:55:27.137Z,11.22
2016-10-12T08:56:26.863Z,11.1
2016-10-12T08:57:27.167Z,11.04
2016-10-12T08:58:26.889Z,11
2016-10-12T08:59:27.220Z,11.08
2016-10-12T09:00:27.253Z,11.2
2016-10-12T09:01:27.340Z,11.34
2016-10-12T09:02:27.285Z,11.53
2016-10-12T09:03:27.311Z,11.78
2016-10-12T09:04:27.331Z,11.93
2016-10-12T09:05:27.339Z,11.83
2016-10-12T09:06:27.366Z,11.97
2016-10-12T09:07:27.380Z,12
2016-10-12T09:08:27.075Z,11.83
2016-10-12T09:09:27.550Z,11.97
2016-10-12T09:10:27.157Z,12.07
2016-10-12T09:11:27.136Z,12.23
2016-10-12T09:12:27.532Z,12.44
2016-10-12T09:13:27.532Z,12.3
2016-10-12T09:14:27.521Z,12.05
2016-10-12T09:15:27.270Z,12.02
2016-10-12T09:16:27.552Z,12.1
2016-10-12T09:17:27.574Z,12.33
2016-10-12T09:18:27.576Z,12.36
2016-10-12T09:19:27.288Z,12.43
2016-10-12T09:20:27.648Z,12.17
2016-10-12T09:21:27.657Z,11.99
2016-10-12T09:22:27.418Z,11.81
2016-10-12T09:23:27.391Z,11.7
2016-10-12T09:24:27.712Z,11.67
2016-10-12T09:25:27.659Z,11.56
2016-10-12T09:26:27.952Z,11.65
2016-10-12T09:27:27.767Z,11.41
2016-10-12T09:28:27.816Z,11.3
2016-10-12T09:29:27.505Z,11.34
2016-10-12T09:30:27.845Z,11.48
2016-10-12T09:31:27.851Z,11.58
2016-10-12T09:32:27.667Z,11.68
2016-10-12T09:33:27.899Z,11.6
2016-10-12T09:34:27.916Z,11.71
2016-10-12T09:35:27.717Z,11.74
2016-10-12T09:36:27.379Z,11.93
2016-10-12T09:37:28.053Z,12.07
2016-10-12T09:38:28.053Z,11.99
2016-10-12T09:39:27.390Z,11.83
2016-10-12T09:40:27.719Z,12.02
2016-10-12T09:41:27.744Z,11.96
2016-10-12T09:42:27.749Z,12.11
2016-10-12T09:43:28.094Z,12.25
2016-10-12T09:44:28.114Z,12.28
2016-10-12T09:45:28.126Z,12.29
2016-10-12T09:46:27.841Z,12.5
2016-10-12T09:47:28.170Z,12.51
2016-10-12T09:48:28.198Z,12.54
2016-10-12T09:49:27.965Z,12.43
2016-10-12T09:50:27.615Z,12.48
2016-10-12T09:51:27.987Z,12.45
2016-10-12T09:52:27.955Z,12.47
2016-10-12T09:53:28.288Z,12.43
2016-10-12T09:54:28.563Z,12.45
2016-10-12T09:55:28.538Z,12.39
2016-10-12T09:56:28.527Z,12.23
2016-10-12T09:57:28.620Z,12.23
2016-10-12T09:58:28.546Z,12.33
2016-10-12T09:59:28.117Z,12.43
2016-10-12T10:00:28.131Z,12.37
2016-10-12T10:01:28.155Z,12.51
2016-10-12T10:02:28.629Z,12.51
2016-10-12T10:03:28.593Z,12.5
2016-10-12T10:04:28.245Z,12.43
2016-10-12T10:05:28.629Z,12.45
2016-10-12T10:06:28.252Z,12.5
2016-10-12T10:07:28.659Z,12.44
2016-10-12T10:08:28.639Z,12.33
2016-10-12T10:09:28.674Z,12.33
2016-10-12T10:10:28.688Z,12.28
2016-10-12T10:11:28.750Z,12.17
2016-10-12T10:12:28.728Z,12.15
2016-10-12T10:13:28.836Z,11.89
2016-10-12T10:14:28.722Z,11.91
2016-10-12T10:15:28.853Z,11.96
2016-10-12T10:16:28.749Z,11.97
2016-10-12T10:17:28.457Z,11.99
2016-10-12T10:18:28.786Z,11.93
2016-10-12T10:19:28.823Z,11.63
2016-10-12T10:20:28.829Z,11.59
2016-10-12T10:21:28.849Z,11.58
2016-10-12T10:22:28.747Z,11.62
2016-10-12T10:23:28.786Z,11.59
2016-10-12T10:24:28.759Z,11.45
2016-10-12T10:25:28.930Z,11.4
2016-10-12T10:26:28.787Z,11.55
2016-10-12T10:27:28.808Z,11.53
2016-10-12T10:28:29.040Z,11.45
2016-10-12T10:29:29.010Z,11.48
2016-10-12T10:30:29.139Z,11.55
2016-10-12T10:31:29.036Z,11.49
2016-10-12T10:32:29.071Z,11.41
2016-10-12T10:33:28.833Z,11.35
2016-10-12T10:34:29.044Z,11.37
2016-10-12T10:35:28.509Z,11.33
2016-10-12T10:36:29.144Z,11.34
2016-10-12T10:37:29.159Z,11.34
2016-10-12T10:38:29.085Z,11.38
2016-10-12T10:39:28.901Z,11.37
2016-10-12T10:40:29.290Z,11.34
2016-10-12T10:41:29.231Z,11.27
2016-10-12T10:42:29.369Z,11.18
2016-10-12T10:43:28.964Z,11.19
2016-10-12T10:44:29.189Z,11.05
2016-10-12T10:45:29.177Z,11.04
2016-10-12T10:46:29.040Z,10.89
2016-10-12T10:47:29.679Z,11
2016-10-12T10:48:29.063Z,10.97
2016-10-12T10:49:29.387Z,11.07
2016-10-12T10:50:29.099Z,11.02
2016-10-12T10:51:29.725Z,11.08
2016-10-12T10:52:29.447Z,10.98
2016-10-12T10:53:29.721Z,11.04
2016-10-12T10:54:29.787Z,11.04
2016-10-12T10:55:29.521Z,10.95
2016-10-12T10:56:29.205Z,10.95
2016-10-12T10:57:29.240Z,10.95
2016-10-12T10:58:29.671Z,11
2016-10-12T10:59:29.576Z,10.97
2016-10-12T11:00:29.579Z,11.01
2016-10-12T11:01:29.385Z,11.02
2016-10-12T11:02:29.360Z,11.15
2016-10-12T11:03:29.717Z,11.15
2016-10-12T11:04:29.801Z,11.26
2016-10-12T11:05:29.685Z,11.35
2016-10-12T11:06:29.408Z,11.3
2016-10-12T11:07:29.745Z,11.37
2016-10-12T11:08:29.586Z,11.51
2016-10-12T11:09:29.765Z,11.53
2016-10-12T11:10:29.785Z,11.56
2016-10-12T11:11:29.822Z,11.56
2016-10-12T11:12:29.831Z,11.51
2016-10-12T11:13:29.861Z,11.58
2016-10-12T11:14:29.549Z,11.48
2016-10-12T11:15:30.050Z,11.56
2016-10-12T11:16:29.609Z,11.67
2016-10-12T11:17:29.721Z,11.93
2016-10-12T11:18:30.045Z,12.07
2016-10-12T11:19:29.960Z,12.29
2016-10-12T11:20:29.724Z,12.33
2016-10-12T11:21:29.990Z,12.53
2016-10-12T11:22:30.033Z,12.81
2016-10-12T11:23:30.057Z,12.91
2016-10-12T11:24:29.730Z,13.02
2016-10-12T11:25:30.094Z,13.03
2016-10-12T11:26:29.778Z,13.03
2016-10-12T11:27:30.141Z,12.9
2016-10-12T11:28:30.198Z,12.83
2016-10-12T11:29:29.852Z,12.76
2016-10-12T11:30:30.175Z,12.58
2016-10-12T11:31:30.260Z,12.53
2016-10-12T11:32:29.911Z,12.5
2016-10-12T11:33:29.941Z,12.45
2016-10-12T11:34:30.251Z,12.5
2016-10-12T11:35:30.277Z,12.72
2016-10-12T11:36:29.990Z,12.7
2016-10-12T11:37:29.698Z,12.76
2016-10-12T11:38:30.334Z,12.84
2016-10-12T11:39:30.348Z,12.9
2016-10-12T11:40:30.366Z,12.91
2016-10-12T11:41:30.389Z,12.83
2016-10-12T11:42:30.612Z,12.86
2016-10-12T11:43:30.443Z,12.99
2016-10-12T11:44:30.236Z,13.23
2016-10-12T11:45:30.478Z,13.21
2016-10-12T11:46:30.549Z,13.21
2016-10-12T11:47:30.521Z,13.17
2016-10-12T11:48:30.537Z,13.16
2016-10-12T11:49:30.550Z,13.06
2016-10-12T11:50:30.571Z,12.95
2016-10-12T11:51:30.277Z,12.86
2016-10-12T11:52:30.610Z,12.9
2016-10-12T11:53:30.639Z,12.8
2016-10-12T11:54:30.668Z,12.73
2016-10-12T11:55:30.668Z,12.66
2016-10-12T11:56:30.699Z,12.57
2016-10-12T11:57:30.710Z,12.5
2016-10-12T11:58:30.738Z,12.39
2016-10-12T11:59:30.758Z,12.4
2016-10-12T12:00:30.805Z,12.53
2016-10-12T12:01:30.489Z,12.5
2016-10-12T12:02:30.825Z,12.5
2016-10-12T12:03:30.842Z,12.53
2016-10-12T12:04:30.840Z,12.37
2016-10-12T12:05:30.567Z,12.43
2016-10-12T12:06:30.908Z,12.57
2016-10-12T12:07:30.917Z,12.75
2016-10-12T12:08:30.629Z,12.75
2016-10-12T12:09:30.639Z,12.73
2016-10-12T12:10:30.988Z,12.83
2016-10-12T12:11:30.684Z,12.81
2016-10-12T12:12:31.031Z,12.86
2016-10-12T12:13:31.144Z,12.87
2016-10-12T12:14:31.060Z,12.88
2016-10-12T12:15:30.461Z,12.7
2016-10-12T12:16:30.848Z,12.75
2016-10-12T12:17:31.103Z,12.72
2016-10-12T12:18:31.189Z,12.7
2016-10-12T12:19:31.218Z,12.73
2016-10-12T12:20:31.180Z,12.72
2016-10-12T12:21:31.208Z,12.65
2016-10-12T12:22:31.219Z,12.61
2016-10-12T12:23:31.291Z,12.72
2016-10-12T12:24:31.271Z,12.57
2016-10-12T12:25:30.975Z,12.73
2016-10-12T12:26:31.292Z,12.83
2016-10-12T12:27:31.326Z,12.88
2016-10-12T12:28:31.333Z,13.13
2016-10-12T12:29:31.046Z,13.23
2016-10-12T12:30:31.074Z,13.5
2016-10-12T12:31:31.087Z,13.54
2016-10-12T12:32:30.810Z,13.71
2016-10-12T12:33:31.652Z,13.79
2016-10-12T12:34:31.147Z,13.7
2016-10-12T12:35:31.523Z,13.73
2016-10-12T12:36:31.496Z,13.65
2016-10-12T12:37:31.509Z,13.73
2016-10-12T12:38:31.539Z,13.71
2016-10-12T12:39:31.256Z,13.67
2016-10-12T12:40:31.610Z,13.45
2016-10-12T12:41:31.604Z,13.31
2016-10-12T12:42:31.611Z,13.2
2016-10-12T12:43:31.633Z,13.16
2016-10-12T12:44:31.838Z,13.01
2016-10-12T12:45:31.748Z,13.01
2016-10-12T12:46:31.755Z,13.09
2016-10-12T12:47:31.717Z,13.24
2016-10-12T12:48:31.784Z,13.26
2016-10-12T12:49:31.859Z,13.37
2016-10-12T12:50:31.528Z,13.46
2016-10-12T12:51:31.821Z,13.73
2016-10-12T12:52:31.824Z,13.94
2016-10-12T12:53:31.847Z,14.11
2016-10-12T12:54:31.627Z,14.38
2016-10-12T12:55:31.889Z,14.41
2016-10-12T12:56:31.898Z,14.25
2016-10-12T12:57:31.646Z,14.4
2016-10-12T12:58:32.028Z,14.23
2016-10-12T12:59:32.048Z,13.97
2016-10-12T13:00:31.697Z,13.89
2016-10-12T13:01:32.009Z,13.85
2016-10-12T13:02:31.403Z,13.98
2016-10-12T13:03:31.510Z,13.94
2016-10-12T13:04:32.080Z,13.86
2016-10-12T13:05:32.123Z,13.85
2016-10-12T13:06:31.806Z,13.82
2016-10-12T13:07:32.362Z,13.87
2016-10-12T13:08:32.468Z,13.86
2016-10-12T13:09:32.422Z,13.95
2016-10-12T13:10:32.494Z,13.94
2016-10-12T13:11:31.606Z,13.8